| time (UTC) | temp F | wind direction | speed MPH | gust MPH | rain 1hr in | rain 24hr in | rain mn in | humidity % | barometer mb |
| 20260503201704 | 68 | 211 | 2.0 | 9.0 | 0.00 | 0.00 | 0.00 | 40 | 1002.2 |
| 20260503201201 | 70 | 239 | 5.0 | 7.0 | 0.00 | 0.00 | 0.00 | 37 | 1002.4 |
| 20260503200657 | 69 | 218 | 2.0 | 8.0 | 0.00 | 0.00 | 0.00 | 40 | 1002.5 |
| 20260503200154 | 69 | 226 | 4.0 | 8.0 | 0.00 | 0.00 | 0.00 | 38 | 1002.5 |
| 20260503195651 | 67 | 298 | 5.0 | 8.0 | 0.00 | 0.00 | 0.00 | 37 | 1002.4 |
| 20260503195147 | 66 | 215 | 3.0 | 4.0 | 0.00 | 0.00 | 0.00 | 41 | 1002.5 |
| 20260503194644 | 69 | 216 | 4.0 | 8.0 | 0.00 | 0.00 | 0.00 | 40 | 1002.5 |
| 20260503194139 | 67 | 223 | 4.0 | 4.0 | 0.00 | 0.00 | 0.00 | 39 | 1002.4 |
| 20260503193636 | 69 | 224 | 9.0 | 11.0 | 0.00 | 0.00 | 0.00 | 38 | 1002.8 |
| 20260503193132 | 68 | 235 | 6.0 | 9.0 | 0.00 | 0.00 | 0.00 | 42 | 1002.9 |
| 20260503192622 | 68 | 226 | 5.0 | 8.0 | 0.00 | 0.00 | 0.00 | 40 | 1003.1 |
| 20260503192118 | 69 | 216 | 3.0 | 4.0 | 0.00 | 0.00 | 0.00 | 38 | 1003.0 |
| 20260503191615 | 68 | 203 | 4.0 | 8.0 | 0.00 | 0.00 | 0.00 | 39 | 1003.1 |
| 20260503191112 | 67 | 225 | 7.0 | 21.0 | 0.00 | 0.00 | 0.00 | 41 | 1003.1 |
| 20260503190609 | 67 | 164 | 9.0 | 13.0 | 0.00 | 0.00 | 0.00 | 40 | 1003.1 |
| 20260503190106 | 67 | 209 | 3.0 | 6.0 | 0.00 | 0.00 | 0.00 | 40 | 1003.3 |
| 20260503185603 | 66 | 206 | 3.0 | 7.0 | 0.00 | 0.00 | 0.00 | 43 | 1003.4 |
| 20260503185103 | 67 | 224 | 4.0 | 6.0 | 0.00 | 0.00 | 0.00 | 42 | 1003.1 |
| 20260503184558 | 66 | 209 | 4.0 | 9.0 | 0.00 | 0.00 | 0.00 | 43 | 1003.2 |
| 20260503184055 | 67 | 178 | 4.0 | 7.0 | 0.00 | 0.00 | 0.00 | 44 | 1003.2 |
| 20260503183552 | 66 | 232 | 4.0 | 7.0 | 0.00 | 0.00 | 0.00 | 40 | 1003.4 |
| 20260503183049 | 66 | 216 | 4.0 | 9.0 | 0.00 | 0.00 | 0.00 | 41 | 1003.4 |
| 20260503182547 | 66 | 233 | 7.0 | 8.0 | 0.00 | 0.00 | 0.00 | 40 | 1003.7 |
| 20260503182045 | 65 | 226 | 4.0 | 9.0 | 0.00 | 0.00 | 0.00 | 41 | 1003.6 |
| 20260503181542 | 65 | 229 | 6.0 | 7.0 | 0.00 | 0.00 | 0.00 | 42 | 1003.6 |
| 20260503181038 | 66 | 210 | 3.0 | 8.0 | 0.00 | 0.00 | 0.00 | 40 | 1003.6 |
| 20260503180535 | 65 | 173 | 11.0 | 15.0 | 0.00 | 0.00 | 0.00 | 42 | 1003.7 |
| 20260503180033 | 65 | 252 | 3.0 | 6.0 | 0.00 | 0.00 | 0.00 | 42 | 1003.9 |
| 20260503175530 | 65 | 180 | 2.0 | 6.0 | 0.00 | 0.00 | 0.00 | 42 | 1003.9 |
| 20260503175027 | 66 | 208 | 5.0 | 9.0 | 0.00 | 0.00 | 0.00 | 41 | 1004.1 |
| 20260503174524 | 65 | 230 | 4.0 | 8.0 | 0.00 | 0.00 | 0.00 | 43 | 1004.1 |
| 20260503174020 | 65 | 196 | 6.0 | 9.0 | 0.00 | 0.00 | 0.00 | 43 | 1004.1 |
| 20260503173515 | 65 | 162 | 3.0 | 8.0 | 0.00 | 0.00 | 0.00 | 42 | 1003.9 |
| 20260503173011 | 65 | 258 | 7.0 | 10.0 | 0.00 | 0.00 | 0.00 | 42 | 1004.1 |
| 20260503172509 | 64 | 208 | 3.0 | 6.0 | 0.00 | 0.00 | 0.00 | 43 | 1004.2 |
| 20260503172001 | 65 | 165 | 4.0 | 6.0 | 0.00 | 0.00 | 0.00 | 43 | 1004.3 |
| 20260503171457 | 64 | 222 | 5.0 | 10.0 | 0.00 | 0.00 | 0.00 | 44 | 1004.5 |
| 20260503170955 | 64 | 222 | 3.0 | 6.0 | 0.00 | 0.00 | 0.00 | 43 | 1004.6 |
| 20260503170450 | 64 | 227 | 3.0 | 3.0 | 0.00 | 0.00 | 0.00 | 43 | 1004.6 |
| 20260503150837 | 58 | 225 | 5.0 | 10.0 | 0.00 | 0.00 | 0.00 | 54 | 1005.7 |
| 20260503150333 | 59 | 233 | 6.0 | 11.0 | 0.00 | 0.00 | 0.00 | 54 | 1005.5 |
| 20260503140257 | 54 | 209 | 2.0 | 4.0 | 0.00 | 0.00 | 0.00 | 58 | 1006.5 |
| 20260503131227 | 55 | 221 | 4.0 | 6.0 | 0.00 | 0.00 | 0.00 | 54 | 1007.1 |
| 20260503130725 | 54 | 230 | 4.0 | 7.0 | 0.00 | 0.00 | 0.00 | 54 | 1007.1 |
| 20260503130222 | 53 | 239 | 4.0 | 4.0 | 0.00 | 0.00 | 0.00 | 55 | 1007.0 |
| 20260503120148 | 50 | 198 | 1.0 | 4.0 | 0.00 | 0.00 | 0.00 | 55 | 1007.0 |
| 20260503110615 | 49 | 195 | 2.0 | 6.0 | 0.00 | 0.00 | 0.00 | 55 | 1007.0 |
| 20260503110113 | 48 | 201 | 1.0 | 8.0 | 0.00 | 0.00 | 0.00 | 55 | 1007.1 |
| 20260503090444 | 50 | 193 | 2.0 | 3.0 | 0.00 | 0.00 | 0.00 | 53 | 1008.1 |
| 20260503081405 | 50 | 222 | 4.0 | 4.0 | 0.00 | 0.00 | 0.00 | 52 | 1008.5 |
| 20260503080902 | 50 | 208 | 3.0 | 4.0 | 0.00 | 0.00 | 0.00 | 52 | 1008.7 |
| 20260503080358 | 50 | 220 | 2.0 | 4.0 | 0.00 | 0.00 | 0.00 | 52 | 1008.8 |
| 20260503072835 | 50 | 215 | 4.0 | 6.0 | 0.00 | 0.00 | 0.00 | 50 | 1008.7 |
| 20260503072332 | 51 | 224 | 3.0 | 4.0 | 0.00 | 0.00 | 0.00 | 50 | 1008.7 |
| 20260503071828 | 51 | 221 | 3.0 | 4.0 | 0.00 | 0.00 | 0.00 | 50 | 1008.8 |
| 20260503071326 | 51 | 194 | 0.0 | 6.0 | 0.00 | 0.00 | 0.00 | 50 | 1008.7 |
| 20260503070821 | 51 | 227 | 2.0 | 4.0 | 0.00 | 0.00 | 0.00 | 50 | 1008.7 |
| 20260503070320 | 51 | 229 | 4.0 | 6.0 | 0.00 | 0.00 | 0.00 | 49 | 1009.0 |
| 20260503060238 | 50 | 184 | 1.0 | 2.0 | 0.00 | 0.00 | 0.00 | 50 | 1009.6 |
| 20260503054726 | 50 | 199 | 0.0 | 1.0 | 0.00 | 0.00 | 0.00 | 51 | 1009.9 |
| 20260503054223 | 50 | 219 | 2.0 | 3.0 | 0.00 | 0.00 | 0.00 | 51 | 1009.7 |
| 20260503053721 | 50 | 210 | 2.0 | 3.0 | 0.00 | 0.00 | 0.00 | 51 | 1009.7 |
| 20260503053219 | 50 | 199 | 2.0 | 3.0 | 0.00 | 0.00 | 0.00 | 51 | 1009.7 |
| 20260503052715 | 50 | 176 | 3.0 | 4.0 | 0.00 | 0.00 | 0.00 | 52 | 1009.9 |
| 20260503052212 | 50 | 202 | 2.0 | 3.0 | 0.00 | 0.00 | 0.00 | 51 | 1010.0 |
| 20260503051707 | 50 | 185 | 5.0 | 7.0 | 0.00 | 0.00 | 0.00 | 51 | 1009.8 |
| 20260503051205 | 50 | 209 | 1.0 | 4.0 | 0.00 | 0.00 | 0.00 | 52 | 1010.2 |
| 20260503050701 | 50 | 206 | 2.0 | 3.0 | 0.00 | 0.00 | 0.00 | 53 | 1010.2 |
| 20260503050158 | 50 | 212 | 1.0 | 2.0 | 0.00 | 0.00 | 0.00 | 54 | 1010.4 |
| 20260503045655 | 49 | 181 | 0.0 | 2.0 | 0.00 | 0.00 | 0.00 | 54 | 1010.3 |
| 20260503045152 | 50 | 184 | 1.0 | 2.0 | 0.00 | 0.00 | 0.00 | 53 | 1010.3 |
| 20260503044648 | 49 | 171 | 0.0 | 2.0 | 0.00 | 0.00 | 0.00 | 54 | 1010.4 |
| 20260503044141 | 50 | 183 | 1.0 | 2.0 | 0.00 | 0.00 | 0.00 | 54 | 1010.4 |
| 20260503043637 | 50 | 205 | 2.0 | 3.0 | 0.00 | 0.00 | 0.00 | 53 | 1010.3 |
| 20260503043134 | 50 | 170 | 0.0 | 1.0 | 0.00 | 0.00 | 0.00 | 54 | 1010.4 |
| 20260503042631 | 50 | 194 | 1.0 | 4.0 | 0.00 | 0.00 | 0.00 | 54 | 1010.5 |
| 20260503042127 | 50 | 184 | 1.0 | 3.0 | 0.00 | 0.00 | 0.00 | 54 | 1010.3 |
| 20260503041623 | 50 | 198 | 1.0 | 2.0 | 0.00 | 0.00 | 0.00 | 53 | 1010.5 |
| 20260503041120 | 50 | 189 | 1.0 | 6.0 | 0.00 | 0.00 | 0.00 | 52 | 1010.5 |
| 20260503040613 | 50 | 197 | 0.0 | 1.0 | 0.00 | 0.00 | 0.00 | 53 | 1010.3 |
| 20260503040110 | 50 | 168 | 2.0 | 2.0 | 0.00 | 0.00 | 0.00 | 53 | 1010.5 |
| 20260503035606 | 49 | 214 | 3.0 | 3.0 | 0.00 | 0.00 | 0.00 | 52 | 1010.3 |
| 20260503035104 | 49 | 178 | 1.0 | 3.0 | 0.00 | 0.00 | 0.00 | 53 | 1010.4 |
| 20260503034601 | 47 | 162 | 2.0 | 3.0 | 0.00 | 0.00 | 0.00 | 54 | 1010.6 |
| 20260503034058 | 46 | 152 | 0.0 | 1.0 | 0.00 | 0.00 | 0.00 | 58 | 1010.5 |
| 20260503033555 | 46 | 166 | 0.0 | 0.0 | 0.00 | 0.00 | 0.00 | 61 | 1010.7 |
| 20260503033053 | 46 | 166 | 0.0 | 0.0 | 0.00 | 0.00 | 0.00 | 61 | 1010.8 |
| 20260503032551 | 47 | 166 | 0.0 | 2.0 | 0.00 | 0.00 | 0.00 | 59 | 1010.9 |
| 20260503032049 | 47 | 162 | 1.0 | 1.0 | 0.00 | 0.00 | 0.00 | 58 | 1010.7 |
| 20260503031546 | 47 | 165 | 1.0 | 1.0 | 0.00 | 0.00 | 0.00 | 56 | 1010.9 |
| 20260503031044 | 44 | 183 | 1.0 | 2.0 | 0.00 | 0.00 | 0.00 | 59 | 1011.1 |
| 20260503030539 | 42 | 170 | 0.0 | 1.0 | 0.00 | 0.00 | 0.00 | 65 | 1011.0 |
| 20260503030037 | 43 | 170 | 0.0 | 0.0 | 0.00 | 0.00 | 0.00 | 66 | 1011.3 |
| 20260503025533 | 43 | 170 | 0.0 | 0.0 | 0.00 | 0.00 | 0.00 | 62 | 1011.2 |
| 20260503025032 | 44 | 170 | 0.0 | 0.0 | 0.00 | 0.00 | 0.00 | 63 | 1011.2 |
| 20260503024527 | 44 | 170 | 0.0 | 0.0 | 0.00 | 0.00 | 0.00 | 63 | 1011.4 |
| 20260503024024 | 44 | 170 | 0.0 | 0.0 | 0.00 | 0.00 | 0.00 | 60 | 1011.3 |
| 20260503023520 | 44 | 170 | 0.0 | 0.0 | 0.00 | 0.00 | 0.00 | 59 | 1011.3 |
| 20260503023018 | 45 | 170 | 0.0 | 1.0 | 0.00 | 0.00 | 0.00 | 57 | 1011.3 |
| 20260503022514 | 45 | 170 | 1.0 | 1.0 | 0.00 | 0.00 | 0.00 | 56 | 1011.3 |
| 20260503022009 | 46 | 170 | 0.0 | 1.0 | 0.00 | 0.00 | 0.00 | 59 | 1011.6 |
| 20260503021506 | 45 | 170 | 1.0 | 1.0 | 0.00 | 0.00 | 0.00 | 53 | 1011.4 |
| 20260503021003 | 46 | 169 | 0.0 | 0.0 | 0.00 | 0.00 | 0.00 | 54 | 1011.6 |
| 20260503020500 | 47 | 169 | 0.0 | 0.0 | 0.00 | 0.00 | 0.00 | 54 | 1011.5 |
| 20260503015956 | 47 | 169 | 1.0 | 2.0 | 0.00 | 0.00 | 0.00 | 51 | 1011.6 |
| 20260503015453 | 46 | 170 | 1.0 | 1.0 | 0.00 | 0.00 | 0.00 | 54 | 1011.5 |
| 20260503014950 | 46 | 170 | 0.0 | 0.0 | 0.00 | 0.00 | 0.00 | 54 | 1011.4 |
| 20260503014446 | 47 | 170 | 0.0 | 1.0 | 0.00 | 0.00 | 0.00 | 52 | 1011.4 |
| 20260503013945 | 48 | 170 | 0.0 | 1.0 | 0.00 | 0.00 | 0.00 | 51 | 1011.4 |
| 20260503013441 | 48 | 169 | 0.0 | 1.0 | 0.00 | 0.00 | 0.00 | 49 | 1011.4 |
| 20260503012938 | 49 | 171 | 1.0 | 2.0 | 0.00 | 0.00 | 0.00 | 48 | 1011.5 |
| 20260503012432 | 50 | 171 | 1.0 | 2.0 | 0.00 | 0.00 | 0.00 | 46 | 1011.5 |
| 20260503011927 | 51 | 183 | 1.0 | 1.0 | 0.00 | 0.00 | 0.00 | 45 | 1011.4 |
| 20260503011424 | 51 | 184 | 0.0 | 1.0 | 0.00 | 0.00 | 0.00 | 45 | 1011.5 |
| 20260503010921 | 52 | 184 | 0.0 | 1.0 | 0.00 | 0.00 | 0.00 | 44 | 1011.5 |
| 20260503010418 | 52 | 193 | 0.0 | 1.0 | 0.00 | 0.00 | 0.00 | 43 | 1011.6 |
| 20260503005915 | 53 | 181 | 0.0 | 2.0 | 0.00 | 0.00 | 0.00 | 41 | 1011.7 |
| 20260503005412 | 54 | 207 | 2.0 | 2.0 | 0.00 | 0.00 | 0.00 | 40 | 1011.7 |
| 20260503004908 | 54 | 204 | 1.0 | 2.0 | 0.00 | 0.00 | 0.00 | 38 | 1011.6 |
| 20260503004405 | 55 | 206 | 1.0 | 3.0 | 0.00 | 0.00 | 0.00 | 38 | 1011.5 |
| 20260503003903 | 55 | 213 | 2.0 | 2.0 | 0.00 | 0.00 | 0.00 | 37 | 1011.6 |
| 20260503003359 | 55 | 208 | 1.0 | 2.0 | 0.00 | 0.00 | 0.00 | 38 | 1011.5 |
| 20260503002856 | 56 | 213 | 1.0 | 4.0 | 0.00 | 0.00 | 0.00 | 36 | 1011.7 |
| 20260503002354 | 56 | 220 | 3.0 | 3.0 | 0.00 | 0.00 | 0.00 | 35 | 1011.6 |
| 20260503001850 | 56 | 202 | 1.0 | 3.0 | 0.00 | 0.00 | 0.00 | 36 | 1011.6 |
| 20260503001346 | 56 | 249 | 2.0 | 4.0 | 0.00 | 0.00 | 0.00 | 36 | 1011.6 |
| 20260503000844 | 57 | 216 | 2.0 | 4.0 | 0.00 | 0.00 | 0.00 | 35 | 1011.6 |
| 20260503000336 | 58 | 213 | 2.0 | 4.0 | 0.00 | 0.00 | 0.00 | 33 | 1011.8 |
| 20260502235832 | 58 | 191 | 2.0 | 4.0 | 0.00 | 0.00 | 0.00 | 34 | 1011.6 |
| 20260502235324 | 58 | 213 | 1.0 | 4.0 | 0.00 | 0.00 | 0.00 | 33 | 1011.5 |
| 20260502234820 | 58 | 166 | 2.0 | 6.0 | 0.00 | 0.00 | 0.00 | 32 | 1011.5 |
| 20260502234317 | 59 | 187 | 2.0 | 2.0 | 0.00 | 0.00 | 0.00 | 31 | 1011.8 |
| 20260502233814 | 59 | 207 | 2.0 | 10.0 | 0.00 | 0.00 | 0.00 | 32 | 1011.7 |
| 20260502233305 | 58 | 231 | 3.0 | 3.0 | 0.00 | 0.00 | 0.00 | 31 | 1011.6 |
| 20260502232802 | 58 | 295 | 2.0 | 6.0 | 0.00 | 0.00 | 0.00 | 31 | 1011.8 |
| 20260502232258 | 60 | 195 | 2.0 | 6.0 | 0.00 | 0.00 | 0.00 | 30 | 1011.7 |
| 20260502231754 | 60 | 321 | 4.0 | 6.0 | 0.00 | 0.00 | 0.00 | 30 | 1011.8 |
| 20260502231252 | 60 | 253 | 9.0 | 10.0 | 0.00 | 0.00 | 0.00 | 30 | 1011.7 |
| 20260502230751 | 60 | 230 | 2.0 | 6.0 | 0.00 | 0.00 | 0.00 | 32 | 1011.9 |
| 20260502230249 | 59 | 264 | 3.0 | 6.0 | 0.00 | 0.00 | 0.00 | 31 | 1011.9 |
| 20260502225745 | 58 | 211 | 2.0 | 7.0 | 0.00 | 0.00 | 0.00 | 32 | 1011.7 |
| 20260502225242 | 59 | 230 | 3.0 | 3.0 | 0.00 | 0.00 | 0.00 | 31 | 1012.1 |
| 20260502224738 | 58 | 199 | 2.0 | 4.0 | 0.00 | 0.00 | 0.00 | 33 | 1012.1 |
| 20260502224235 | 58 | 266 | 2.0 | 4.0 | 0.00 | 0.00 | 0.00 | 32 | 1012.1 |
| 20260502223732 | 58 | 222 | 4.0 | 7.0 | 0.00 | 0.00 | 0.00 | 31 | 1012.2 |
| 20260502223230 | 58 | 230 | 3.0 | 7.0 | 0.00 | 0.00 | 0.00 | 31 | 1012.2 |
| 20260502222727 | 59 | 248 | 5.0 | 7.0 | 0.00 | 0.00 | 0.00 | 30 | 1011.9 |
| 20260502222223 | 58 | 266 | 4.0 | 6.0 | 0.00 | 0.00 | 0.00 | 31 | 1012.2 |
| 20260502221719 | 59 | 316 | 6.0 | 14.0 | 0.00 | 0.00 | 0.00 | 30 | 1012.1 |
| 20260502221216 | 59 | 229 | 4.0 | 6.0 | 0.00 | 0.00 | 0.00 | 30 | 1012.3 |
| 20260502220712 | 60 | 291 | 6.0 | 15.0 | 0.00 | 0.00 | 0.00 | 29 | 1012.2 |
| 20260502220204 | 59 | 258 | 2.0 | 4.0 | 0.00 | 0.00 | 0.00 | 32 | 1012.2 |
| 20260502215701 | 59 | 278 | 6.0 | 9.0 | 0.00 | 0.00 | 0.00 | 30 | 1012.4 |
| 20260502215157 | 59 | 298 | 7.0 | 9.0 | 0.00 | 0.00 | 0.00 | 30 | 1012.3 |
| 20260502214655 | 57 | 265 | 4.0 | 8.0 | 0.00 | 0.00 | 0.00 | 32 | 1012.5 |
| 20260502214152 | 58 | 277 | 3.0 | 4.0 | 0.00 | 0.00 | 0.00 | 30 | 1012.4 |
| 20260502213649 | 60 | 278 | 5.0 | 8.0 | 0.00 | 0.00 | 0.00 | 29 | 1012.5 |
| 20260502213146 | 59 | 288 | 2.0 | 6.0 | 0.00 | 0.00 | 0.00 | 31 | 1012.5 |
| 20260502212645 | 60 | 233 | 4.0 | 7.0 | 0.00 | 0.00 | 0.00 | 30 | 1012.5 |
| 20260502212143 | 59 | 296 | 1.0 | 6.0 | 0.00 | 0.00 | 0.00 | 31 | 1012.6 |
| 20260502211638 | 59 | 232 | 3.0 | 6.0 | 0.00 | 0.00 | 0.00 | 32 | 1012.6 |
| 20260502211135 | 59 | 237 | 5.0 | 7.0 | 0.00 | 0.00 | 0.00 | 29 | 1012.7 |
| 20260502210633 | 60 | 310 | 8.0 | 11.0 | 0.00 | 0.00 | 0.00 | 29 | 1012.7 |
| 20260502210130 | 59 | 308 | 2.0 | 6.0 | 0.00 | 0.00 | 0.00 | 30 | 1012.9 |
| 20260502205626 | 59 | 351 | 4.0 | 8.0 | 0.00 | 0.00 | 0.00 | 30 | 1012.8 |
| 20260502205123 | 60 | 243 | 2.0 | 6.0 | 0.00 | 0.00 | 0.00 | 31 | 1013.2 |
| 20260502204620 | 59 | 202 | 1.0 | 6.0 | 0.00 | 0.00 | 0.00 | 34 | 1013.2 |
| 20260502204117 | 59 | 272 | 5.0 | 10.0 | 0.00 | 0.00 | 0.00 | 31 | 1013.2 |
| 20260502203614 | 60 | 326 | 5.0 | 11.0 | 0.00 | 0.00 | 0.00 | 29 | 1013.2 |
| 20260502203106 | 59 | 264 | 5.0 | 9.0 | 0.00 | 0.00 | 0.00 | 29 | 1013.3 |
| 20260502202601 | 59 | 116 | 1.0 | 3.0 | 0.00 | 0.00 | 0.00 | 28 | 1013.3 |
| 20260502202100 | 59 | 245 | 4.0 | 4.0 | 0.00 | 0.00 | 0.00 | 32 | 1013.5 |